createdAt,value
2022-11-21T00:01:39.168Z,4.50
2022-11-21T00:04:07.573Z,4.10
2022-11-21T00:06:38.567Z,4.85
2022-11-21T00:09:06.266Z,5.80
2022-11-21T00:11:34.392Z,3.00
2022-11-21T00:14:02.622Z,3.58
2022-11-21T00:16:30.397Z,3.53
2022-11-21T00:19:03.885Z,3.15
2022-11-21T00:21:34.124Z,3.63
2022-11-21T00:24:02.235Z,3.55
2022-11-21T00:26:33.698Z,2.63
2022-11-21T00:29:02.323Z,3.08
2022-11-21T00:31:30.252Z,4.53
2022-11-21T00:34:01.256Z,4.18
2022-11-21T00:36:29.249Z,4.38
2022-11-21T00:38:57.134Z,3.00
2022-11-21T00:41:24.985Z,3.13
2022-11-21T00:43:56.105Z,3.42
2022-11-21T00:46:23.841Z,3.38
2022-11-21T00:48:51.913Z,3.10
2022-11-21T00:51:19.845Z,4.53
2022-11-21T00:53:48.059Z,3.92
2022-11-21T00:56:15.747Z,3.10
2022-11-21T00:58:43.341Z,2.97
2022-11-21T01:01:14.476Z,4.63
2022-11-21T01:03:42.413Z,3.50
2022-11-21T01:06:13.767Z,3.13
2022-11-21T01:08:44.717Z,3.42
2022-11-21T01:11:17.083Z,3.28
2022-11-21T01:13:45.463Z,3.60
2022-11-21T01:16:19.325Z,3.03
2022-11-21T01:18:47.898Z,3.60
2022-11-21T01:21:17.819Z,3.50
2022-11-21T01:23:45.934Z,2.88
2022-11-21T01:26:19.672Z,2.90
2022-11-21T01:28:47.793Z,3.80
2022-11-21T01:31:21.759Z,3.80
2022-11-21T01:33:49.938Z,3.67
2022-11-21T01:36:17.734Z,3.67
2022-11-21T01:38:47.957Z,3.90
2022-11-21T01:41:22.873Z,3.55
2022-11-21T01:43:51.385Z,3.17
2022-11-21T01:46:23.084Z,3.08
2022-11-21T01:49:04.519Z,2.97
2022-11-21T01:51:37.373Z,3.28
2022-11-21T01:54:13.657Z,2.90
2022-11-21T01:56:43.984Z,3.00
2022-11-21T01:59:18.263Z,2.95
2022-11-21T02:01:48.626Z,3.47
2022-11-21T02:04:16.708Z,2.88
2022-11-21T02:06:45.092Z,3.30
2022-11-21T02:09:12.798Z,3.42
2022-11-21T02:11:48.096Z,6.22
2022-11-21T02:14:16.071Z,3.38
2022-11-21T02:16:44.407Z,3.85
2022-11-21T02:19:20.219Z,3.65
2022-11-21T02:22:17.015Z,4.40
2022-11-21T02:25:19.201Z,5.32
2022-11-21T02:27:50.358Z,2.63
2022-11-21T02:30:21.283Z,2.90
2022-11-21T02:32:49.435Z,3.45
2022-11-21T02:35:19.095Z,4.80
2022-11-21T02:37:51.143Z,4.47
2022-11-21T02:40:26.967Z,3.47
2022-11-21T02:43:13.593Z,4.93
2022-11-21T02:45:43.697Z,3.72
2022-11-21T02:48:15.249Z,4.30
2022-11-21T02:50:45.252Z,3.88
2022-11-21T02:53:16.358Z,3.00
2022-11-21T02:55:45.369Z,2.80
2022-11-21T02:58:13.582Z,4.30
2022-11-21T03:00:43.102Z,3.67
2022-11-21T03:03:10.969Z,4.65
2022-11-21T03:05:39.879Z,3.28
2022-11-21T03:08:10.730Z,3.85
2022-11-21T03:10:38.814Z,3.72
2022-11-21T03:13:06.938Z,3.83
2022-11-21T03:15:38.373Z,3.88
2022-11-21T03:18:07.327Z,3.13
2022-11-21T03:20:35.385Z,3.45
2022-11-21T03:23:03.689Z,2.75
2022-11-21T03:25:31.773Z,3.38
2022-11-21T03:28:00.029Z,3.95
2022-11-21T03:30:28.695Z,4.95
2022-11-21T03:33:01.251Z,3.50
2022-11-21T03:35:30.232Z,3.47
2022-11-21T03:37:58.306Z,3.13
2022-11-21T03:40:27.097Z,6.25
2022-11-21T03:42:54.773Z,3.47
2022-11-21T03:45:23.447Z,4.68
2022-11-21T03:47:51.674Z,6.28
2022-11-21T03:50:21.305Z,3.95
2022-11-21T03:52:49.144Z,4.03
2022-11-21T03:55:17.226Z,3.10
2022-11-21T03:57:44.934Z,3.22
2022-11-21T04:00:13.802Z,2.88
2022-11-21T04:02:41.617Z,3.50
2022-11-21T04:05:09.635Z,3.92
2022-11-21T04:07:37.462Z,2.97
2022-11-21T04:10:05.648Z,3.15
2022-11-21T04:12:33.412Z,2.80
2022-11-21T04:15:01.180Z,3.28
2022-11-21T04:17:29.096Z,4.18
2022-11-21T04:19:56.776Z,3.60
2022-11-21T04:22:24.627Z,3.35
2022-11-21T04:24:52.393Z,3.55
2022-11-21T04:27:20.014Z,3.75
2022-11-21T04:29:47.890Z,3.55
2022-11-21T04:32:16.965Z,3.88
2022-11-21T04:34:44.622Z,4.45
2022-11-21T04:37:12.315Z,3.78
2022-11-21T04:39:39.983Z,3.50
2022-11-21T04:42:07.780Z,5.00
2022-11-21T04:44:36.639Z,3.13
2022-11-21T04:47:05.701Z,4.43
2022-11-21T04:49:33.853Z,4.03
2022-11-21T04:52:01.880Z,3.40
2022-11-21T04:54:29.984Z,4.32
2022-11-21T04:56:57.911Z,3.85
2022-11-21T04:59:25.755Z,3.17
2022-11-21T05:01:53.511Z,4.45
2022-11-21T05:04:21.432Z,3.50
2022-11-21T05:06:49.170Z,4.45
2022-11-21T05:09:16.841Z,4.20
2022-11-21T05:12:02.974Z,3.78
2022-11-21T05:14:30.829Z,4.32
2022-11-21T05:16:58.472Z,3.25
2022-11-21T05:19:26.237Z,4.35
2022-11-21T05:21:53.995Z,4.53
2022-11-21T05:24:21.735Z,3.42
2022-11-21T05:26:49.357Z,3.72
2022-11-21T05:29:18.181Z,6.32
2022-11-21T05:31:45.883Z,4.32
2022-11-21T05:34:13.813Z,3.90
2022-11-21T05:36:41.556Z,4.68
2022-11-21T05:39:09.428Z,5.00
2022-11-21T05:41:37.347Z,4.07
2022-11-21T05:44:05.205Z,4.57
2022-11-21T05:46:34.157Z,5.07
2022-11-21T05:49:01.940Z,3.63
2022-11-21T05:51:29.783Z,4.38
2022-11-21T05:53:57.621Z,3.53
2022-11-21T05:56:28.728Z,3.58
2022-11-21T05:58:57.223Z,4.22
2022-11-21T06:01:44.756Z,4.18
2022-11-21T06:04:12.609Z,5.68
2022-11-21T06:06:41.771Z,5.63
2022-11-21T06:09:09.598Z,4.03
2022-11-21T06:11:37.404Z,5.07
2022-11-21T06:14:05.309Z,4.38
2022-11-21T06:16:34.523Z,3.88
2022-11-21T06:19:05.160Z,3.78
2022-11-21T06:21:37.387Z,5.45
2022-11-21T06:24:05.786Z,3.55
2022-11-21T06:26:33.610Z,4.00
2022-11-21T06:29:01.496Z,5.05
2022-11-21T06:31:30.493Z,4.20
2022-11-21T06:34:01.417Z,3.78
2022-11-21T06:36:29.206Z,5.38
2022-11-21T06:38:56.986Z,6.25
2022-11-21T06:41:26.957Z,4.20
2022-11-21T06:43:54.857Z,5.47
2022-11-21T06:46:22.643Z,5.03
2022-11-21T06:48:50.571Z,4.22
2022-11-21T06:51:22.036Z,4.40
2022-11-21T06:53:59.144Z,5.45
2022-11-21T06:56:31.486Z,5.55
2022-11-21T06:58:59.960Z,5.22
2022-11-21T07:01:28.053Z,4.80
2022-11-21T07:03:56.045Z,5.07
2022-11-21T07:06:30.593Z,4.72
2022-11-21T07:09:32.291Z,5.05
2022-11-21T07:12:19.717Z,4.45
2022-11-21T07:14:47.922Z,6.30
2022-11-21T07:17:19.107Z,3.97
2022-11-21T07:19:49.270Z,4.70
2022-11-21T07:22:17.459Z,4.15
2022-11-21T07:24:48.103Z,3.67
2022-11-21T07:27:16.002Z,4.90
2022-11-21T07:29:43.954Z,3.53
2022-11-21T07:32:12.292Z,3.60
2022-11-21T07:34:42.787Z,3.90
2022-11-21T07:37:10.485Z,3.97
2022-11-21T07:39:38.261Z,5.00
2022-11-21T07:42:06.567Z,3.58
2022-11-21T07:44:34.404Z,3.58
2022-11-21T07:47:02.830Z,3.67
2022-11-21T07:49:31.144Z,4.90
2022-11-21T07:52:02.144Z,3.15
2022-11-21T07:56:57.642Z,3.88
2022-11-21T07:59:26.942Z,3.58
2022-11-21T08:01:55.546Z,3.80
2022-11-21T08:04:29.525Z,2.67
2022-11-21T08:06:57.712Z,3.10
2022-11-21T08:09:29.534Z,3.92
2022-11-21T08:11:57.673Z,3.35
2022-11-21T08:14:31.416Z,3.20
2022-11-21T08:16:59.217Z,5.68
2022-11-21T08:19:27.217Z,2.95
2022-11-21T08:21:55.161Z,4.30
2022-11-21T08:24:22.860Z,3.60
2022-11-21T08:26:50.662Z,3.90
2022-11-21T08:29:18.275Z,4.78
2022-11-21T08:31:47.426Z,3.88
2022-11-21T08:34:15.161Z,4.30
2022-11-21T08:36:42.746Z,5.13
2022-11-21T08:39:10.360Z,3.20
2022-11-21T08:41:56.586Z,4.18
2022-11-21T08:44:24.886Z,3.85
2022-11-21T08:46:52.555Z,3.70
2022-11-21T08:49:20.216Z,3.60
2022-11-21T08:51:51.321Z,2.72
2022-11-21T08:54:25.621Z,3.50
2022-11-21T08:56:53.817Z,2.80
2022-11-21T08:59:21.413Z,3.88
2022-11-21T09:01:49.202Z,3.67
2022-11-21T09:04:16.934Z,4.40
2022-11-21T09:06:44.535Z,4.15
2022-11-21T09:09:12.280Z,3.15
2022-11-21T09:11:39.858Z,3.55
2022-11-21T09:14:26.010Z,3.58
2022-11-21T09:17:12.311Z,3.15
2022-11-21T09:19:43.620Z,3.85
2022-11-21T09:22:11.226Z,3.25
2022-11-21T09:24:38.905Z,3.22
2022-11-21T09:27:07.073Z,4.55
2022-11-21T09:29:34.644Z,3.38
2022-11-21T09:32:02.352Z,2.85
2022-11-21T09:34:31.701Z,3.15
2022-11-21T09:36:59.464Z,5.13
2022-11-21T09:39:27.603Z,3.65
2022-11-21T09:41:58.398Z,3.03
2022-11-21T09:47:19.487Z,4.50
2022-11-21T09:49:55.462Z,4.15
2022-11-21T09:52:38.199Z,4.30
2022-11-21T09:55:21.413Z,4.55
2022-11-21T09:57:52.997Z,5.38
2022-11-21T10:00:23.679Z,4.63
2022-11-21T10:05:49.819Z,6.18
2022-11-21T10:08:34.779Z,3.25
2022-11-21T10:11:20.486Z,3.88
2022-11-21T10:14:06.496Z,3.97
2022-11-21T10:16:43.288Z,4.30
2022-11-21T10:19:37.169Z,6.15
2022-11-21T10:22:34.173Z,4.53
2022-11-21T10:25:14.016Z,5.70
2022-11-21T10:27:54.311Z,4.47
2022-11-21T10:30:22.603Z,4.20
2022-11-21T10:33:04.739Z,4.57
2022-11-21T10:36:10.028Z,7.00
2022-11-21T10:38:40.561Z,5.07
2022-11-21T10:41:15.961Z,5.00
2022-11-21T10:44:15.711Z,4.22
2022-11-21T10:46:59.146Z,6.80
2022-11-21T10:49:35.122Z,5.43
2022-11-21T10:52:13.854Z,5.25
2022-11-21T10:55:07.750Z,6.28
2022-11-21T10:57:46.067Z,5.28
2022-11-21T11:00:13.710Z,5.35
2022-11-21T11:02:57.567Z,6.13
2022-11-21T11:05:29.303Z,5.18
2022-11-21T11:08:07.954Z,7.15
2022-11-21T11:10:54.057Z,4.65
2022-11-21T11:13:50.379Z,3.72
2022-11-21T11:16:24.546Z,4.28
2022-11-21T11:19:31.605Z,4.55
2022-11-21T11:22:01.865Z,4.95
2022-11-21T11:24:29.602Z,4.75
2022-11-21T11:27:05.445Z,4.38
2022-11-21T11:29:57.439Z,4.50
2022-11-21T11:32:25.705Z,5.32
2022-11-21T11:35:12.960Z,4.38
2022-11-21T11:37:42.471Z,6.93
2022-11-21T11:40:38.326Z,4.63
2022-11-21T11:43:24.366Z,4.53
2022-11-21T11:46:25.053Z,4.88
2022-11-21T11:51:56.678Z,4.70
2022-11-21T11:54:31.724Z,5.43
2022-11-21T11:56:59.967Z,5.68
2022-11-21T11:59:54.197Z,4.97
2022-11-21T12:02:29.382Z,4.65
2022-11-21T12:05:11.433Z,3.97
2022-11-21T12:11:16.965Z,4.75
2022-11-21T12:13:49.694Z,7.00
2022-11-21T12:18:54.929Z,4.53
2022-11-21T12:21:23.584Z,5.03
2022-11-21T12:23:52.717Z,5.22
2022-11-21T12:26:20.346Z,5.72
2022-11-21T12:29:20.662Z,6.28
2022-11-21T12:32:10.083Z,6.43
2022-11-21T12:34:43.583Z,6.15
2022-11-21T12:37:27.627Z,5.70
2022-11-21T12:40:26.548Z,5.63
2022-11-21T12:43:11.601Z,5.07
2022-11-21T12:45:47.221Z,3.70
2022-11-21T12:49:04.370Z,5.28
2022-11-21T12:52:13.205Z,3.47
2022-11-21T12:54:47.092Z,3.72
2022-11-21T12:57:26.906Z,3.10
2022-11-21T13:00:04.139Z,4.32
2022-11-21T13:03:09.564Z,2.70
2022-11-21T13:05:41.273Z,4.53
2022-11-21T13:08:26.740Z,5.10
2022-11-21T13:11:35.242Z,3.08
2022-11-21T13:14:13.917Z,3.80
2022-11-21T13:16:48.348Z,3.17
2022-11-21T13:19:24.895Z,3.40
2022-11-21T13:21:56.997Z,2.70
2022-11-21T13:24:47.250Z,2.92
2022-11-21T13:27:33.396Z,3.72
2022-11-21T13:30:07.104Z,4.70
2022-11-21T13:32:42.089Z,3.05
2022-11-21T13:35:38.948Z,1.75
2022-11-21T13:38:13.163Z,2.65
2022-11-21T13:41:05.252Z,2.20
2022-11-21T13:43:34.567Z,2.90
2022-11-21T13:46:02.842Z,1.80
2022-11-21T13:49:00.960Z,1.65
2022-11-21T13:51:50.353Z,2.25
2022-11-21T13:54:26.604Z,1.88
2022-11-21T13:57:09.482Z,2.05
2022-11-21T14:00:19.885Z,2.33
2022-11-21T14:05:46.155Z,2.15
2022-11-21T14:08:22.315Z,2.33
2022-11-21T14:10:54.652Z,2.10
2022-11-21T14:13:25.237Z,2.00
2022-11-21T14:16:17.528Z,1.83
2022-11-21T14:18:47.276Z,3.13
2022-11-21T14:21:35.773Z,2.17
2022-11-21T14:24:15.618Z,2.22
2022-11-21T14:26:49.566Z,2.33
2022-11-21T14:29:29.291Z,3.33
2022-11-21T14:31:57.260Z,1.88
2022-11-21T14:34:29.894Z,1.70
2022-11-21T14:37:00.567Z,2.10
2022-11-21T14:39:42.193Z,2.30
2022-11-21T14:42:15.306Z,2.90
2022-11-21T14:44:43.515Z,2.03
2022-11-21T14:47:25.792Z,2.63
2022-11-21T14:49:56.974Z,2.20
2022-11-21T14:52:31.542Z,2.78
2022-11-21T14:55:29.652Z,1.90
2022-11-21T14:57:48.622Z,2.88
2022-11-21T15:00:58.125Z,1.98
2022-11-21T15:03:22.183Z,1.80
2022-11-21T15:06:05.027Z,1.92
2022-11-21T15:11:42.962Z,1.60
2022-11-21T15:14:29.877Z,1.67
2022-11-21T15:16:58.984Z,1.85
2022-11-21T15:19:30.273Z,1.67
2022-11-21T15:22:00.421Z,2.83
2022-11-21T15:24:37.476Z,2.33
2022-11-21T15:27:27.096Z,1.48
2022-11-21T15:30:10.286Z,1.60
2022-11-21T15:33:00.195Z,1.73
2022-11-21T15:35:53.259Z,3.10
2022-11-21T15:38:49.381Z,2.40
2022-11-21T15:41:16.951Z,1.77
2022-11-21T15:43:56.662Z,2.45
2022-11-21T15:46:28.197Z,1.75
2022-11-21T15:48:57.648Z,2.45
2022-11-21T15:52:05.547Z,2.63
2022-11-21T15:54:27.492Z,2.25
2022-11-21T15:56:55.637Z,3.38
2022-11-21T15:59:23.256Z,2.03
2022-11-21T16:01:50.871Z,2.03
2022-11-21T16:04:23.865Z,2.03
2022-11-21T16:06:53.800Z,1.98
2022-11-21T16:09:21.471Z,1.73
2022-11-21T16:11:49.132Z,1.80
2022-11-21T16:14:18.541Z,2.80
2022-11-21T16:16:47.831Z,1.90
2022-11-21T16:19:16.101Z,2.15
2022-11-21T16:21:44.115Z,2.20
2022-11-21T16:24:12.853Z,2.65
2022-11-21T16:26:40.494Z,3.38
2022-11-21T16:29:10.632Z,2.30
2022-11-21T16:31:38.541Z,2.67
2022-11-21T16:34:06.228Z,3.55
2022-11-21T16:36:36.375Z,2.45
2022-11-21T16:39:09.954Z,2.75
2022-11-21T16:41:39.447Z,3.53
2022-11-21T16:44:16.426Z,3.83
2022-11-21T16:46:49.236Z,3.05
2022-11-21T16:49:20.302Z,3.30
2022-11-21T16:51:48.058Z,3.60
2022-11-21T16:54:15.835Z,3.65
2022-11-21T16:56:47.613Z,3.85
2022-11-21T16:59:15.402Z,1.50
2022-11-21T17:01:43.636Z,1.83
2022-11-21T17:04:17.628Z,1.80
2022-11-21T17:06:49.074Z,2.53
2022-11-21T17:09:17.424Z,1.88
2022-11-21T17:11:46.060Z,1.98
2022-11-21T17:14:13.813Z,1.70
2022-11-21T17:16:42.115Z,1.40
2022-11-21T17:19:16.334Z,1.42
2022-11-21T17:21:59.870Z,1.50
2022-11-21T17:24:29.340Z,1.30
2022-11-21T17:27:02.960Z,1.50
2022-11-21T17:29:32.038Z,1.05
2022-11-21T17:31:59.932Z,1.13
2022-11-21T17:34:33.189Z,1.05
2022-11-21T17:37:01.181Z,0.80
2022-11-21T17:39:30.585Z,1.02
2022-11-21T17:42:02.349Z,0.90
2022-11-21T17:44:30.671Z,1.10
2022-11-21T17:47:02.043Z,1.10
2022-11-21T17:49:37.094Z,1.40
2022-11-21T17:52:08.231Z,1.20
2022-11-21T17:54:36.315Z,1.00
2022-11-21T17:57:04.466Z,1.20
2022-11-21T17:59:33.660Z,1.63
2022-11-21T18:02:02.137Z,1.05
2022-11-21T18:04:30.394Z,1.33
2022-11-21T18:06:58.710Z,2.10
2022-11-21T18:09:26.924Z,1.60
2022-11-21T18:11:55.109Z,1.90
2022-11-21T18:14:23.100Z,1.92
2022-11-21T18:16:56.091Z,1.83
2022-11-21T18:19:26.380Z,1.60
2022-11-21T18:21:54.816Z,3.45
2022-11-21T18:24:22.777Z,1.70
2022-11-21T18:26:50.924Z,3.53
2022-11-21T18:32:07.515Z,2.10
2022-11-21T18:34:38.007Z,2.00
2022-11-21T18:39:44.599Z,2.00
2022-11-21T18:42:48.081Z,2.47
2022-11-21T18:45:16.284Z,2.25
2022-11-21T18:47:49.922Z,2.75
2022-11-21T18:50:18.049Z,1.95
2022-11-21T18:52:46.944Z,2.67
2022-11-21T18:55:15.673Z,2.42
2022-11-21T18:57:43.473Z,2.42
2022-11-21T19:00:12.353Z,2.13
2022-11-21T19:02:48.553Z,3.33
2022-11-21T19:05:20.384Z,2.08
2022-11-21T19:07:48.902Z,2.72
2022-11-21T19:10:41.560Z,4.20
2022-11-21T19:13:05.842Z,4.00
2022-11-21T19:15:38.664Z,4.05
2022-11-21T19:18:06.753Z,3.22
2022-11-21T19:20:39.015Z,3.17
2022-11-21T19:23:26.270Z,3.40
2022-11-21T19:26:00.067Z,2.40
2022-11-21T19:28:29.338Z,3.47
2022-11-21T19:30:58.393Z,2.80
2022-11-21T19:33:28.220Z,4.22
2022-11-21T19:36:04.151Z,3.20
2022-11-21T19:38:32.255Z,3.33
2022-11-21T19:41:15.891Z,3.17
2022-11-21T19:43:45.224Z,3.30
2022-11-21T19:46:18.839Z,2.92
2022-11-21T19:48:51.784Z,3.00
2022-11-21T19:51:21.374Z,3.75
2022-11-21T19:53:49.698Z,2.65
2022-11-21T19:56:20.052Z,3.88
2022-11-21T19:58:49.196Z,3.28
2022-11-21T20:01:19.553Z,3.05
2022-11-21T20:03:52.846Z,6.07
2022-11-21T20:06:28.243Z,4.13
2022-11-21T20:09:06.985Z,2.70
2022-11-21T20:11:35.637Z,2.70
2022-11-21T20:14:03.943Z,5.15
2022-11-21T20:16:54.397Z,3.53
2022-11-21T20:19:25.328Z,3.70
2022-11-21T20:21:53.248Z,4.25
2022-11-21T20:24:21.581Z,3.67
2022-11-21T20:26:49.567Z,3.67
2022-11-21T20:29:17.390Z,3.55
2022-11-21T20:31:45.216Z,3.28
2022-11-21T20:34:14.042Z,2.83
2022-11-21T20:36:42.831Z,5.00
2022-11-21T20:39:17.347Z,3.00
2022-11-21T20:41:46.389Z,3.80
2022-11-21T20:47:07.863Z,6.45
2022-11-21T20:49:35.842Z,3.80
2022-11-21T20:54:51.234Z,3.10
2022-11-21T20:57:18.911Z,3.13
2022-11-21T20:59:46.619Z,3.00
2022-11-21T21:02:15.010Z,3.53
2022-11-21T21:04:42.843Z,2.67
2022-11-21T21:07:10.728Z,3.50
2022-11-21T21:09:38.893Z,2.30
2022-11-21T21:12:06.766Z,3.47
2022-11-21T21:14:35.220Z,2.95
2022-11-21T21:17:03.117Z,2.72
2022-11-21T21:19:33.907Z,2.78
2022-11-21T21:22:01.599Z,3.25
2022-11-21T21:24:32.599Z,3.00
2022-11-21T21:27:00.575Z,2.70
2022-11-21T21:29:29.643Z,3.03
2022-11-21T21:31:57.684Z,2.60
2022-11-21T21:34:26.237Z,2.72
2022-11-21T21:36:57.170Z,3.17
2022-11-21T21:39:25.609Z,4.00
2022-11-21T21:41:53.752Z,3.00
2022-11-21T21:44:25.929Z,3.00
2022-11-21T21:46:56.657Z,3.30
2022-11-21T21:49:25.018Z,3.60
2022-11-21T21:51:53.471Z,4.63
2022-11-21T21:54:24.255Z,2.30
2022-11-21T21:59:19.960Z,2.42
2022-11-21T22:01:48.050Z,2.42
2022-11-21T22:04:16.158Z,4.20
2022-11-21T22:06:45.209Z,2.42
2022-11-21T22:09:13.030Z,2.58
2022-11-21T22:11:40.944Z,2.38
2022-11-21T22:14:13.448Z,3.03
2022-11-21T22:16:54.808Z,2.45
2022-11-21T22:19:23.578Z,2.60
2022-11-21T22:21:51.559Z,2.30
2022-11-21T22:24:27.481Z,2.78
2022-11-21T22:26:57.430Z,3.33
2022-11-21T22:29:25.645Z,2.78
2022-11-21T22:32:04.989Z,2.97
2022-11-21T22:34:33.197Z,5.68
2022-11-21T22:37:01.244Z,3.03
2022-11-21T22:39:28.994Z,3.08
2022-11-21T22:41:59.802Z,2.53
2022-11-21T22:44:27.867Z,4.22
2022-11-21T22:46:55.789Z,2.97
2022-11-21T22:49:23.932Z,2.97
2022-11-21T22:51:51.607Z,3.17
2022-11-21T22:54:19.259Z,2.78
2022-11-21T22:56:46.931Z,3.28
2022-11-21T22:59:15.075Z,2.80
2022-11-21T23:01:45.066Z,2.50
2022-11-21T23:04:17.430Z,4.38
2022-11-21T23:06:45.568Z,2.83
2022-11-21T23:09:13.418Z,2.20
2022-11-21T23:11:41.294Z,2.67
2022-11-21T23:14:09.258Z,2.28
2022-11-21T23:16:37.014Z,2.97
2022-11-21T23:19:04.728Z,3.28
2022-11-21T23:21:35.464Z,2.10
2022-11-21T23:24:03.182Z,2.28
2022-11-21T23:26:30.950Z,2.60
2022-11-21T23:29:01.309Z,3.22
2022-11-21T23:31:33.654Z,3.75
2022-11-21T23:34:01.580Z,2.63
2022-11-21T23:36:29.229Z,2.10
2022-11-21T23:38:56.875Z,2.30
2022-11-21T23:41:24.683Z,2.30
2022-11-21T23:43:52.342Z,2.30
2022-11-21T23:46:21.042Z,2.35
2022-11-21T23:48:49.687Z,2.40
2022-11-21T23:51:17.435Z,2.17
2022-11-21T23:53:53.187Z,2.08
2022-11-21T23:56:25.018Z,1.90
2022-11-21T23:58:55.462Z,2.30
